createdAt,value
2023-04-24T00:01:24.739Z,1.33
2023-04-24T00:03:57.169Z,1.10
2023-04-24T00:06:25.760Z,1.30
2023-04-24T00:08:54.033Z,1.10
2023-04-24T00:11:22.381Z,1.00
2023-04-24T00:13:50.827Z,1.10
2023-04-24T00:16:19.364Z,1.10
2023-04-24T00:18:48.859Z,1.17
2023-04-24T00:21:19.265Z,1.10
2023-04-24T00:23:48.152Z,0.90
2023-04-24T00:26:16.623Z,0.90
2023-04-24T00:28:45.243Z,1.03
2023-04-24T00:31:14.919Z,1.10
2023-04-24T00:33:44.658Z,1.07
2023-04-24T00:36:13.037Z,1.00
2023-04-24T00:38:42.737Z,0.93
2023-04-24T00:41:11.453Z,0.87
2023-04-24T00:43:40.066Z,1.20
2023-04-24T00:46:08.772Z,1.03
2023-04-24T00:48:39.518Z,0.90
2023-04-24T00:51:08.427Z,1.00
2023-04-24T00:53:37.283Z,1.00
2023-04-24T00:56:08.497Z,1.00
2023-04-24T00:58:37.213Z,1.03
2023-04-24T01:01:08.212Z,1.17
2023-04-24T01:03:39.253Z,0.80
2023-04-24T01:06:08.694Z,1.00
2023-04-24T01:08:38.093Z,1.10
2023-04-24T01:11:07.961Z,1.00
2023-04-24T01:13:36.953Z,1.00
2023-04-24T01:16:05.525Z,0.80
2023-04-24T01:18:37.001Z,0.70
2023-04-24T01:21:06.781Z,0.93
2023-04-24T01:23:36.799Z,0.90
2023-04-24T01:26:05.950Z,0.80
2023-04-24T01:28:34.621Z,1.10
2023-04-24T01:31:03.069Z,0.90
2023-04-24T01:33:31.810Z,1.00
2023-04-24T01:36:00.338Z,1.20
2023-04-24T01:38:30.268Z,0.90
2023-04-24T01:41:00.186Z,1.00
2023-04-24T01:43:30.797Z,0.90
2023-04-24T01:46:00.296Z,0.90
2023-04-24T01:48:29.167Z,1.00
2023-04-24T01:50:59.122Z,1.00
2023-04-24T01:53:28.117Z,0.87
2023-04-24T01:55:56.840Z,0.93
2023-04-24T01:58:29.321Z,1.10
2023-04-24T02:00:59.922Z,0.93
2023-04-24T02:03:29.235Z,1.10
2023-04-24T02:05:59.966Z,0.80
2023-04-24T02:08:28.386Z,1.00
2023-04-24T02:10:56.951Z,1.00
2023-04-24T02:13:26.536Z,1.10
2023-04-24T02:15:58.189Z,1.00
2023-04-24T02:18:28.523Z,1.00
2023-04-24T02:20:57.527Z,0.90
2023-04-24T02:23:28.240Z,1.20
2023-04-24T02:25:59.739Z,1.03
2023-04-24T02:28:28.765Z,1.00
2023-04-24T02:31:01.484Z,0.83
2023-04-24T02:33:31.706Z,1.10
2023-04-24T02:36:00.539Z,1.00
2023-04-24T02:38:29.281Z,1.10
2023-04-24T02:40:57.750Z,0.97
2023-04-24T02:43:28.369Z,0.90
2023-04-24T02:45:56.823Z,0.90
2023-04-24T02:48:27.478Z,0.90
2023-04-24T02:50:55.982Z,1.30
2023-04-24T02:53:25.004Z,1.00
2023-04-24T02:55:53.446Z,1.00
2023-04-24T02:58:24.693Z,0.90
2023-04-24T03:00:56.915Z,1.27
2023-04-24T03:03:26.263Z,1.00
2023-04-24T03:05:56.506Z,0.93
2023-04-24T03:08:24.886Z,1.03
2023-04-24T03:10:54.735Z,1.00
2023-04-24T03:13:23.350Z,0.97
2023-04-24T03:15:52.188Z,1.20
2023-04-24T03:18:20.776Z,1.13
2023-04-24T03:20:51.087Z,1.17
2023-04-24T03:23:23.078Z,1.43
2023-04-24T03:25:52.259Z,1.20
2023-04-24T03:28:22.017Z,1.40
2023-04-24T03:31:01.251Z,1.50
2023-04-24T03:33:37.155Z,1.50
2023-04-24T03:36:06.898Z,1.60
2023-04-24T03:38:44.225Z,1.83
2023-04-24T03:41:33.074Z,1.90
2023-04-24T03:44:24.239Z,1.80
2023-04-24T03:46:53.546Z,1.70
2023-04-24T03:49:24.453Z,1.70
2023-04-24T03:51:53.757Z,1.60
2023-04-24T03:54:26.959Z,1.80
2023-04-24T03:56:56.292Z,1.70
2023-04-24T03:59:27.190Z,1.77
2023-04-24T04:02:12.994Z,1.87
2023-04-24T04:04:41.693Z,2.00
2023-04-24T04:07:10.293Z,1.77
2023-04-24T04:09:40.095Z,1.80
2023-04-24T04:12:08.808Z,2.33
2023-04-24T04:14:38.501Z,2.00
2023-04-24T04:17:07.075Z,1.90
2023-04-24T04:19:35.922Z,1.77
2023-04-24T04:22:05.224Z,1.53
2023-04-24T04:24:47.341Z,1.53
2023-04-24T04:27:17.670Z,1.30
2023-04-24T04:29:52.614Z,1.43
2023-04-24T04:32:22.707Z,1.63
2023-04-24T04:34:54.359Z,1.40
2023-04-24T04:37:26.385Z,1.50
2023-04-24T04:40:08.223Z,1.60
2023-04-24T04:42:43.615Z,1.50
2023-04-24T04:45:14.831Z,1.63
2023-04-24T04:48:03.250Z,1.77
2023-04-24T04:50:33.221Z,1.70
2023-04-24T04:53:08.052Z,1.73
2023-04-24T04:55:41.707Z,1.70
2023-04-24T04:58:16.583Z,1.90
2023-04-24T05:00:47.699Z,1.80
2023-04-24T05:03:26.561Z,1.60
2023-04-24T05:06:03.080Z,1.87
2023-04-24T05:08:35.716Z,2.20
2023-04-24T05:11:09.652Z,1.70
2023-04-24T05:13:41.086Z,1.97
2023-04-24T05:16:19.032Z,2.10
2023-04-24T05:18:47.869Z,2.20
2023-04-24T05:21:21.292Z,2.43
2023-04-24T05:23:53.460Z,2.13
2023-04-24T05:26:56.611Z,2.47
2023-04-24T05:29:31.823Z,2.47
2023-04-24T05:32:00.585Z,1.90
2023-04-24T05:34:31.158Z,2.30
2023-04-24T05:37:00.197Z,2.30
2023-04-24T05:39:28.818Z,2.10
2023-04-24T05:41:59.680Z,2.10
2023-04-24T05:44:29.358Z,2.80
2023-04-24T05:46:58.087Z,2.53
2023-04-24T05:49:27.626Z,2.57
2023-04-24T05:51:57.009Z,2.80
2023-04-24T05:54:25.697Z,2.17
2023-04-24T05:56:56.454Z,2.13
2023-04-24T05:59:36.746Z,2.37
2023-04-24T06:02:05.765Z,2.07
2023-04-24T06:04:34.981Z,2.50
2023-04-24T06:07:04.221Z,2.10
2023-04-24T06:09:32.945Z,2.10
2023-04-24T06:12:01.824Z,1.70
2023-04-24T06:14:40.662Z,2.10
2023-04-24T06:17:20.681Z,2.23
2023-04-24T06:19:51.061Z,1.63
2023-04-24T06:22:20.464Z,1.70
2023-04-24T06:24:49.968Z,1.57
2023-04-24T06:27:18.922Z,1.80
2023-04-24T06:29:55.249Z,1.53
2023-04-24T06:32:25.174Z,2.00
2023-04-24T06:34:54.378Z,1.53
2023-04-24T06:37:23.770Z,2.17
2023-04-24T06:39:52.441Z,1.87
2023-04-24T06:42:23.181Z,1.90
2023-04-24T06:44:53.604Z,1.60
2023-04-24T06:47:24.184Z,1.90
2023-04-24T06:49:53.683Z,2.00
2023-04-24T06:52:22.240Z,2.03
2023-04-24T06:54:52.767Z,1.87
2023-04-24T06:57:22.105Z,1.80
2023-04-24T06:59:53.433Z,1.87
2023-04-24T07:02:22.161Z,1.93
2023-04-24T07:04:50.812Z,1.73
2023-04-24T07:07:19.157Z,2.03
2023-04-24T07:09:47.657Z,2.00
2023-04-24T07:12:17.966Z,1.90
2023-04-24T07:14:46.420Z,1.90
2023-04-24T07:17:16.765Z,1.80
2023-04-24T07:19:45.377Z,1.77
2023-04-24T07:22:18.096Z,2.07
2023-04-24T07:24:47.031Z,1.80
2023-04-24T07:27:16.269Z,1.70
2023-04-24T07:29:45.535Z,1.57
2023-04-24T07:32:15.796Z,1.60
2023-04-24T07:34:44.480Z,2.00
2023-04-24T07:37:13.041Z,1.70
2023-04-24T07:39:41.715Z,1.87
2023-04-24T07:42:13.458Z,1.90
2023-04-24T07:44:42.104Z,1.80
2023-04-24T07:47:10.805Z,1.80
2023-04-24T07:49:41.154Z,1.90
2023-04-24T07:52:09.819Z,2.00
2023-04-24T07:54:38.932Z,2.07
2023-04-24T07:57:09.164Z,1.50
2023-04-24T07:59:37.922Z,1.70
2023-04-24T08:02:07.396Z,1.53
2023-04-24T08:04:37.716Z,1.30
2023-04-24T08:07:08.855Z,1.60
2023-04-24T08:09:37.291Z,1.40
2023-04-24T08:12:05.796Z,1.60
2023-04-24T08:14:34.562Z,1.10
2023-04-24T08:17:03.917Z,1.10
2023-04-24T08:19:32.759Z,1.30
2023-04-24T08:22:01.876Z,1.10
2023-04-24T08:24:31.688Z,1.30
2023-04-24T08:27:00.183Z,1.23
2023-04-24T08:29:28.782Z,1.67
2023-04-24T08:31:57.221Z,1.13
2023-04-24T08:34:25.740Z,1.30
2023-04-24T08:36:54.474Z,1.50
2023-04-24T08:39:23.219Z,1.33
2023-04-24T08:41:54.294Z,1.33
2023-04-24T08:44:23.071Z,1.50
2023-04-24T08:46:54.867Z,1.40
2023-04-24T08:49:28.260Z,1.63
2023-04-24T08:51:57.358Z,1.20
2023-04-24T08:54:27.692Z,1.30
2023-04-24T08:57:02.553Z,1.47
2023-04-24T08:59:32.439Z,1.27
2023-04-24T09:02:01.941Z,1.20
2023-04-24T09:04:32.308Z,1.40
2023-04-24T09:07:01.840Z,1.40
2023-04-24T09:09:33.152Z,1.47
2023-04-24T09:12:04.568Z,1.77
2023-04-24T09:14:37.318Z,1.70
2023-04-24T09:17:05.731Z,1.53
2023-04-24T09:19:34.505Z,1.50
2023-04-24T09:22:07.368Z,1.77
2023-04-24T09:24:37.811Z,1.97
2023-04-24T09:27:08.935Z,1.80
2023-04-24T09:29:39.139Z,1.80
2023-04-24T09:32:23.364Z,2.00
2023-04-24T09:35:08.925Z,1.90
2023-04-24T09:37:42.607Z,2.03
2023-04-24T09:40:14.995Z,2.57
2023-04-24T09:42:47.975Z,2.40
2023-04-24T09:45:16.557Z,2.60
2023-04-24T09:47:45.122Z,2.93
2023-04-24T09:50:16.072Z,2.90
2023-04-24T09:52:49.101Z,2.60
2023-04-24T09:55:22.052Z,2.83
2023-04-24T09:57:53.181Z,2.70
2023-04-24T10:00:24.764Z,2.30
2023-04-24T10:02:56.969Z,2.20
2023-04-24T10:05:27.616Z,2.30
2023-04-24T10:08:03.766Z,2.50
2023-04-24T10:10:33.143Z,2.50
2023-04-24T10:13:04.096Z,2.60
2023-04-24T10:15:33.904Z,2.67
2023-04-24T10:18:02.498Z,2.40
2023-04-24T10:20:32.663Z,2.37
2023-04-24T10:23:02.156Z,2.20
2023-04-24T10:25:32.755Z,2.10
2023-04-24T10:28:05.010Z,2.73
2023-04-24T10:30:37.003Z,2.40
2023-04-24T10:33:06.541Z,2.10
2023-04-24T10:35:38.274Z,2.10
2023-04-24T10:38:10.472Z,1.90
2023-04-24T10:40:40.167Z,1.80
2023-04-24T10:43:12.553Z,1.80
2023-04-24T10:45:41.326Z,2.20
2023-04-24T10:48:14.735Z,2.37
2023-04-24T10:50:48.227Z,2.13
2023-04-24T10:53:19.059Z,2.50
2023-04-24T10:55:51.528Z,2.57
2023-04-24T10:58:25.065Z,2.63
2023-04-24T11:01:00.675Z,2.33
2023-04-24T11:03:31.176Z,3.00
2023-04-24T11:06:03.561Z,2.70
2023-04-24T11:08:34.892Z,2.60
2023-04-24T11:11:06.449Z,2.80
2023-04-24T11:14:12.297Z,3.00
2023-04-24T11:16:46.900Z,2.83
2023-04-24T11:19:25.630Z,2.90
2023-04-24T11:22:01.426Z,2.70
2023-04-24T11:24:35.148Z,2.60
2023-04-24T11:27:10.020Z,2.23
2023-04-24T11:29:46.699Z,2.87
2023-04-24T11:32:29.068Z,3.27
2023-04-24T11:34:59.850Z,3.10
2023-04-24T11:37:30.502Z,3.30
2023-04-24T11:40:01.976Z,3.03
2023-04-24T11:42:35.567Z,2.93
2023-04-24T11:45:04.866Z,3.30
2023-04-24T11:47:35.538Z,2.67
2023-04-24T11:50:05.314Z,2.60
2023-04-24T11:52:38.892Z,3.67
2023-04-24T11:55:10.210Z,3.10
2023-04-24T11:57:39.054Z,2.97
2023-04-24T12:00:09.487Z,2.80
2023-04-24T12:02:43.054Z,2.70
2023-04-24T12:05:13.027Z,2.40
2023-04-24T12:07:44.888Z,3.27
2023-04-24T12:10:13.958Z,3.00
2023-04-24T12:12:42.324Z,2.93
2023-04-24T12:15:13.883Z,2.57
2023-04-24T12:17:44.513Z,2.77
2023-04-24T12:20:14.193Z,2.67
2023-04-24T12:22:47.637Z,2.70
2023-04-24T12:25:23.812Z,2.73
2023-04-24T12:28:18.117Z,2.97
2023-04-24T12:30:54.074Z,2.90
2023-04-24T12:33:25.249Z,3.20
2023-04-24T12:35:55.500Z,2.90
2023-04-24T12:38:25.887Z,2.90
2023-04-24T12:41:05.220Z,3.00
2023-04-24T12:43:33.937Z,2.90
2023-04-24T12:46:02.328Z,2.70
2023-04-24T12:48:32.572Z,2.87
2023-04-24T12:51:02.935Z,2.90
2023-04-24T12:53:32.349Z,2.97
2023-04-24T12:56:00.930Z,2.97
2023-04-24T12:58:29.297Z,3.20
2023-04-24T13:00:58.070Z,3.40
2023-04-24T13:03:26.983Z,3.13
2023-04-24T13:05:56.747Z,3.77
2023-04-24T13:08:25.266Z,3.33
2023-04-24T13:10:54.893Z,3.03
2023-04-24T13:13:24.124Z,3.13
2023-04-24T13:15:52.587Z,2.90
2023-04-24T13:18:21.487Z,2.67
2023-04-24T13:20:52.130Z,2.63
2023-04-24T13:23:22.134Z,2.97
2023-04-24T13:25:51.003Z,2.47
2023-04-24T13:28:19.431Z,2.47
2023-04-24T13:30:51.681Z,2.17
2023-04-24T13:33:21.085Z,2.20
2023-04-24T13:35:49.953Z,2.27
2023-04-24T13:38:18.378Z,2.40
2023-04-24T13:40:48.696Z,2.37
2023-04-24T13:43:17.845Z,2.40
2023-04-24T13:45:46.277Z,2.63
2023-04-24T13:48:16.496Z,2.23
2023-04-24T13:50:49.766Z,2.60
2023-04-24T13:53:18.812Z,3.00
2023-04-24T13:55:48.679Z,3.13
2023-04-24T13:58:17.363Z,2.70
2023-04-24T14:00:45.860Z,2.50
2023-04-24T14:03:14.525Z,2.63
2023-04-24T14:05:43.574Z,2.63
2023-04-24T14:08:14.377Z,3.17
2023-04-24T14:10:45.130Z,3.00
2023-04-24T14:13:15.901Z,3.00
2023-04-24T14:15:44.423Z,2.47
2023-04-24T14:18:12.992Z,2.30
2023-04-24T14:20:41.948Z,2.37
2023-04-24T14:23:10.439Z,2.53
2023-04-24T14:25:39.356Z,2.60
2023-04-24T14:28:09.279Z,2.57
2023-04-24T14:30:41.658Z,2.57
2023-04-24T14:33:10.127Z,2.80
2023-04-24T14:35:38.724Z,2.30
2023-04-24T14:38:07.854Z,2.70
2023-04-24T14:41:02.556Z,2.53
2023-04-24T14:43:26.821Z,2.90
2023-04-24T14:45:56.792Z,2.40
2023-04-24T14:48:25.993Z,2.80
2023-04-24T14:50:56.076Z,2.70
2023-04-24T14:53:24.507Z,2.60
2023-04-24T14:55:52.917Z,2.20
2023-04-24T14:58:21.799Z,2.13
2023-04-24T15:00:55.371Z,2.70
2023-04-24T15:03:28.134Z,2.40
2023-04-24T15:05:57.004Z,2.10
2023-04-24T15:08:26.058Z,2.30
2023-04-24T15:10:54.870Z,2.13
2023-04-24T15:13:23.925Z,2.70
2023-04-24T15:15:53.188Z,2.33
2023-04-24T15:18:21.596Z,2.10
2023-04-24T15:20:51.526Z,2.17
2023-04-24T15:23:19.943Z,2.13
2023-04-24T15:25:51.454Z,1.93
2023-04-24T15:28:20.094Z,1.90
2023-04-24T15:30:48.821Z,2.13
2023-04-24T15:33:17.893Z,2.20
2023-04-24T15:35:46.424Z,1.67
2023-04-24T15:38:16.256Z,1.90
2023-04-24T15:40:45.765Z,2.00
2023-04-24T15:43:15.201Z,2.00
2023-04-24T15:45:43.831Z,2.10
2023-04-24T15:48:13.412Z,1.90
2023-04-24T15:50:42.902Z,2.27
2023-04-24T15:53:11.858Z,1.87
2023-04-24T15:55:45.013Z,1.80
2023-04-24T15:58:13.499Z,2.13
2023-04-24T16:00:42.082Z,1.60
2023-04-24T16:03:11.252Z,2.10
2023-04-24T16:05:40.062Z,2.00
2023-04-24T16:08:10.863Z,1.80
2023-04-24T16:10:40.565Z,1.97
2023-04-24T16:13:11.876Z,1.80
2023-04-24T16:15:41.707Z,2.13
2023-04-24T16:18:11.166Z,2.40
2023-04-24T16:20:39.772Z,2.07
2023-04-24T16:23:08.071Z,2.00
2023-04-24T16:25:38.066Z,2.20
2023-04-24T16:28:06.984Z,2.40
2023-04-24T16:30:37.038Z,2.20
2023-04-24T16:33:09.206Z,2.37
2023-04-24T16:35:37.983Z,2.80
2023-04-24T16:38:06.411Z,3.07
2023-04-24T16:40:35.631Z,3.20
2023-04-24T16:43:04.113Z,3.40
2023-04-24T16:45:32.516Z,2.93
2023-04-24T16:48:02.764Z,3.93
2023-04-24T16:50:31.363Z,3.63
2023-04-24T16:53:01.318Z,4.23
2023-04-24T16:55:29.713Z,3.47
2023-04-24T16:58:00.386Z,3.93
2023-04-24T17:00:28.873Z,3.93
2023-04-24T17:02:58.003Z,4.50
2023-04-24T17:05:28.185Z,2.33
2023-04-24T17:07:56.610Z,3.37
2023-04-24T17:10:25.180Z,2.23
2023-04-24T17:12:53.785Z,2.50
2023-04-24T17:15:23.576Z,2.13
2023-04-24T17:17:52.754Z,2.60
2023-04-24T17:20:23.378Z,2.40
2023-04-24T17:22:54.430Z,2.43
2023-04-24T17:25:25.144Z,2.67
2023-04-24T17:27:55.413Z,2.83
2023-04-24T17:30:24.050Z,2.70
2023-04-24T17:32:54.976Z,2.50
2023-04-24T17:35:24.278Z,2.40
2023-04-24T17:37:54.506Z,3.10
2023-04-24T17:40:23.202Z,2.30
2023-04-24T17:42:52.141Z,2.67
2023-04-24T17:45:20.834Z,2.70
2023-04-24T17:47:51.660Z,2.90
2023-04-24T17:50:20.496Z,3.30
2023-04-24T17:52:48.866Z,3.23
2023-04-24T17:55:19.545Z,3.30
2023-04-24T17:57:47.977Z,3.07
2023-04-24T18:00:18.170Z,3.00
2023-04-24T18:02:46.770Z,3.30
2023-04-24T18:05:20.135Z,3.03
2023-04-24T18:07:48.510Z,3.07
2023-04-24T18:10:18.438Z,2.90
2023-04-24T18:12:47.984Z,2.80
2023-04-24T18:15:17.012Z,3.13
2023-04-24T18:17:47.752Z,3.00
2023-04-24T18:20:17.806Z,3.23
2023-04-24T18:22:47.037Z,3.10
2023-04-24T18:25:16.653Z,3.50
2023-04-24T18:27:46.352Z,3.30
2023-04-24T18:30:15.159Z,3.20
2023-04-24T18:32:44.320Z,2.57
2023-04-24T18:35:12.708Z,2.67
2023-04-24T18:37:42.006Z,2.70
2023-04-24T18:40:12.428Z,3.03
2023-04-24T18:42:40.997Z,3.57
2023-04-24T18:45:15.010Z,2.90
2023-04-24T18:47:44.211Z,3.30
2023-04-24T18:50:14.698Z,3.63
2023-04-24T18:52:43.143Z,3.77
2023-04-24T18:55:11.940Z,3.00
2023-04-24T18:57:40.334Z,3.20
2023-04-24T19:00:11.666Z,3.20
2023-04-24T19:02:43.503Z,3.20
2023-04-24T19:05:12.205Z,3.17
2023-04-24T19:07:42.226Z,3.60
2023-04-24T19:10:11.660Z,3.20
2023-04-24T19:12:40.380Z,3.27
2023-04-24T19:15:13.012Z,3.37
2023-04-24T19:17:41.779Z,3.37
2023-04-24T19:20:11.091Z,3.20
2023-04-24T19:22:39.851Z,4.13
2023-04-24T19:25:09.718Z,3.83
2023-04-24T19:27:38.313Z,3.60
2023-04-24T19:30:08.276Z,3.57
2023-04-24T19:32:38.178Z,3.73
2023-04-24T19:35:08.534Z,3.40
2023-04-24T19:37:37.144Z,3.73
2023-04-24T19:40:06.962Z,3.97
2023-04-24T19:42:43.922Z,3.43
2023-04-24T19:45:13.706Z,3.57
2023-04-24T19:47:43.641Z,3.50
2023-04-24T19:50:12.357Z,4.77
2023-04-24T19:52:40.855Z,4.00
2023-04-24T19:55:10.723Z,4.17
2023-04-24T19:57:39.089Z,3.50
2023-04-24T20:00:08.867Z,3.97
2023-04-24T20:02:40.270Z,3.80
2023-04-24T20:05:11.858Z,3.77
2023-04-24T20:07:40.456Z,3.30
2023-04-24T20:10:11.680Z,3.40
2023-04-24T20:12:40.130Z,3.43
2023-04-24T20:15:10.119Z,2.70
2023-04-24T20:17:40.531Z,2.70
2023-04-24T20:20:12.607Z,3.20
2023-04-24T20:22:41.163Z,3.00
2023-04-24T20:25:13.059Z,2.97
2023-04-24T20:27:42.565Z,2.70
2023-04-24T20:30:13.210Z,2.73
2023-04-24T20:32:42.732Z,2.80
2023-04-24T20:35:13.111Z,2.60
2023-04-24T20:37:41.682Z,2.60
2023-04-24T20:40:10.885Z,2.27
2023-04-24T20:42:41.372Z,2.50
2023-04-24T20:45:11.626Z,2.60
2023-04-24T20:47:40.154Z,2.77
2023-04-24T20:50:09.684Z,2.13
2023-04-24T20:52:39.766Z,2.30
2023-04-24T20:55:09.766Z,2.27
2023-04-24T20:57:38.863Z,2.00
2023-04-24T21:00:09.087Z,2.60
2023-04-24T21:02:38.155Z,2.67
2023-04-24T21:05:07.582Z,2.30
2023-04-24T21:07:36.612Z,2.20
2023-04-24T21:10:07.307Z,2.30
2023-04-24T21:12:35.763Z,2.30
2023-04-24T21:15:04.195Z,2.50
2023-04-24T21:17:34.027Z,2.33
2023-04-24T21:20:02.574Z,2.40
2023-04-24T21:22:30.959Z,2.80
2023-04-24T21:24:59.740Z,2.70
2023-04-24T21:27:29.646Z,2.80
2023-04-24T21:29:58.222Z,2.70
2023-04-24T21:32:26.987Z,2.77
2023-04-24T21:34:56.007Z,2.67
2023-04-24T21:37:24.536Z,2.77
2023-04-24T21:39:53.797Z,2.50
2023-04-24T21:42:22.369Z,2.83
2023-04-24T21:45:02.173Z,2.80
2023-04-24T21:47:40.719Z,3.30
2023-04-24T21:50:10.780Z,3.17
2023-04-24T21:52:40.662Z,2.90
2023-04-24T21:55:09.776Z,2.93
2023-04-24T21:57:38.432Z,3.27
2023-04-24T22:00:11.468Z,3.13
2023-04-24T22:02:42.997Z,3.00
2023-04-24T22:05:15.769Z,2.97
2023-04-24T22:07:47.153Z,2.60
2023-04-24T22:10:18.171Z,2.77
2023-04-24T22:12:46.676Z,3.17
2023-04-24T22:15:16.545Z,2.47
2023-04-24T22:17:45.168Z,2.90
2023-04-24T22:20:14.203Z,2.80
2023-04-24T22:22:43.136Z,3.80
2023-04-24T22:25:11.911Z,2.70
2023-04-24T22:27:40.272Z,3.13
2023-04-24T22:30:10.329Z,3.03
2023-04-24T22:32:40.704Z,3.20
2023-04-24T22:35:11.114Z,2.90
2023-04-24T22:37:39.479Z,2.60
2023-04-24T22:40:10.119Z,2.87
2023-04-24T22:42:38.808Z,2.53
2023-04-24T22:45:11.388Z,3.13
2023-04-24T22:47:41.468Z,2.60
2023-04-24T22:50:11.135Z,2.70
2023-04-24T22:52:41.126Z,2.87
2023-04-24T22:55:11.165Z,2.90
2023-04-24T22:57:39.922Z,3.03
2023-04-24T23:00:11.354Z,2.97
2023-04-24T23:02:43.278Z,3.00
2023-04-24T23:05:12.450Z,2.70
2023-04-24T23:07:40.884Z,3.10
2023-04-24T23:10:10.876Z,2.70
2023-04-24T23:12:39.536Z,2.70
2023-04-24T23:15:09.286Z,2.57
2023-04-24T23:17:38.300Z,2.70
2023-04-24T23:20:13.080Z,2.90
2023-04-24T23:22:41.957Z,3.27
2023-04-24T23:25:11.056Z,3.10
2023-04-24T23:27:39.892Z,2.80
2023-04-24T23:30:09.971Z,2.73
2023-04-24T23:32:38.624Z,3.23
2023-04-24T23:35:09.270Z,2.80
2023-04-24T23:37:38.581Z,3.00
2023-04-24T23:40:10.360Z,2.80
2023-04-24T23:42:38.843Z,2.63
2023-04-24T23:45:10.646Z,3.00
2023-04-24T23:47:39.174Z,2.87
2023-04-24T23:50:10.330Z,3.10
2023-04-24T23:52:39.778Z,2.83
2023-04-24T23:55:09.395Z,3.10
2023-04-24T23:57:38.078Z,3.27
